createdAt,value
2023-03-27T00:02:29.076Z,18.60
2023-03-27T00:04:57.273Z,18.00
2023-03-27T00:07:25.265Z,18.60
2023-03-27T00:09:53.625Z,19.30
2023-03-27T00:12:21.584Z,19.70
2023-03-27T00:14:49.782Z,22.40
2023-03-27T00:17:17.936Z,24.70
2023-03-27T00:19:46.005Z,21.10
2023-03-27T00:22:14.089Z,19.10
2023-03-27T00:24:42.148Z,18.10
2023-03-27T00:27:10.151Z,19.30
2023-03-27T00:29:39.853Z,20.90
2023-03-27T00:32:07.995Z,20.20
2023-03-27T00:34:35.931Z,20.80
2023-03-27T00:37:05.773Z,21.30
2023-03-27T00:39:34.257Z,25.40
2023-03-27T00:42:02.224Z,18.00
2023-03-27T00:44:35.782Z,21.20
2023-03-27T00:47:05.228Z,21.10
2023-03-27T00:49:37.621Z,20.60
2023-03-27T00:52:07.175Z,22.10
2023-03-27T00:54:40.490Z,19.90
2023-03-27T00:57:14.368Z,19.20
2023-03-27T00:59:46.465Z,21.70
2023-03-27T01:02:16.116Z,20.60
2023-03-27T01:04:46.569Z,20.20
2023-03-27T01:07:16.319Z,20.10
2023-03-27T01:09:46.084Z,24.00
2023-03-27T01:12:33.451Z,20.30
2023-03-27T01:15:04.724Z,20.30
2023-03-27T01:18:10.522Z,19.60
2023-03-27T01:20:38.518Z,18.80
2023-03-27T01:23:12.633Z,20.40
2023-03-27T01:26:02.626Z,19.50
2023-03-27T01:29:04.794Z,20.50
2023-03-27T01:31:36.054Z,23.20
2023-03-27T01:34:26.120Z,21.40
2023-03-27T01:37:11.600Z,21.40
2023-03-27T01:40:01.496Z,15.60
2023-03-27T01:42:58.886Z,18.10
2023-03-27T01:45:50.562Z,18.30
2023-03-27T01:48:29.695Z,18.90
2023-03-27T01:51:12.109Z,19.20
2023-03-27T01:53:49.592Z,17.20
2023-03-27T01:56:32.855Z,19.50
2023-03-27T01:59:07.039Z,20.50
2023-03-27T02:01:39.977Z,18.30
2023-03-27T02:04:16.388Z,18.80
2023-03-27T02:07:00.940Z,20.00
2023-03-27T02:09:52.167Z,21.70
2023-03-27T02:12:30.448Z,18.70
2023-03-27T02:15:23.408Z,20.10
2023-03-27T02:18:05.287Z,15.80
2023-03-27T02:20:35.952Z,18.00
2023-03-27T02:23:06.540Z,21.50
2023-03-27T02:25:38.963Z,21.20
2023-03-27T02:28:31.806Z,18.10
2023-03-27T02:31:33.750Z,20.10
2023-03-27T02:34:29.300Z,20.20
2023-03-27T02:37:32.404Z,16.30
2023-03-27T02:40:24.476Z,15.60
2023-03-27T02:43:07.455Z,17.20
2023-03-27T02:45:40.651Z,19.60
2023-03-27T02:48:34.404Z,17.70
2023-03-27T02:51:21.823Z,17.80
2023-03-27T02:53:58.290Z,18.10
2023-03-27T02:56:32.248Z,18.40
2023-03-27T02:59:17.768Z,20.20
2023-03-27T03:01:46.324Z,19.40
2023-03-27T03:04:22.443Z,15.50
2023-03-27T03:07:11.578Z,18.30
2023-03-27T03:09:44.731Z,18.40
2023-03-27T03:12:12.870Z,18.90
2023-03-27T03:14:47.173Z,16.90
2023-03-27T03:17:16.826Z,17.60
2023-03-27T03:19:46.490Z,17.80
2023-03-27T03:22:15.046Z,18.00
2023-03-27T03:24:43.936Z,16.40
2023-03-27T03:27:16.246Z,19.00
2023-03-27T03:29:49.316Z,15.90
2023-03-27T03:32:20.979Z,17.90
2023-03-27T03:34:51.331Z,17.50
2023-03-27T03:37:20.722Z,17.10
2023-03-27T03:39:48.671Z,16.40
2023-03-27T03:42:22.974Z,16.90
2023-03-27T03:44:55.993Z,14.00
2023-03-27T03:47:24.280Z,15.20
2023-03-27T03:49:52.217Z,16.50
2023-03-27T03:52:21.414Z,16.60
2023-03-27T03:54:49.485Z,13.80
2023-03-27T03:57:18.759Z,15.40
2023-03-27T03:59:55.247Z,17.20
2023-03-27T04:02:43.852Z,15.00
2023-03-27T04:05:14.530Z,16.10
2023-03-27T04:07:43.317Z,13.70
2023-03-27T04:10:20.340Z,15.00
2023-03-27T04:12:50.023Z,17.40
2023-03-27T04:15:28.529Z,12.30
2023-03-27T04:18:19.783Z,13.20
2023-03-27T04:20:51.429Z,10.10
2023-03-27T04:23:20.707Z,16.50
2023-03-27T04:25:49.187Z,15.70
2023-03-27T04:28:22.985Z,15.20
2023-03-27T04:30:58.309Z,19.10
2023-03-27T04:33:30.698Z,43.80
2023-03-27T04:36:14.965Z,19.60
2023-03-27T04:38:53.485Z,14.50
2023-03-27T04:41:21.739Z,13.50
2023-03-27T04:43:50.140Z,16.80
2023-03-27T04:46:18.329Z,13.70
2023-03-27T04:48:52.105Z,18.60
2023-03-27T04:51:32.553Z,19.80
2023-03-27T04:54:05.013Z,19.50
2023-03-27T04:56:35.278Z,21.90
2023-03-27T04:59:04.935Z,19.00
2023-03-27T05:01:34.198Z,39.90
2023-03-27T05:04:21.279Z,50.60
2023-03-27T05:07:03.068Z,91.20
2023-03-27T05:09:31.348Z,156.50
2023-03-27T05:11:59.419Z,177.30
2023-03-27T05:14:27.821Z,311.10
2023-03-27T05:16:58.249Z,212.20
2023-03-27T05:19:26.957Z,166.60
2023-03-27T05:22:00.201Z,119.20
2023-03-27T05:24:28.891Z,81.10
2023-03-27T05:26:57.893Z,114.00
2023-03-27T05:29:27.189Z,107.20
2023-03-27T05:32:06.697Z,74.90
2023-03-27T05:34:41.044Z,25.60
2023-03-27T05:37:11.775Z,25.00
2023-03-27T05:40:02.059Z,32.10
2023-03-27T05:42:31.564Z,79.70
2023-03-27T05:44:59.729Z,74.70
2023-03-27T05:47:27.884Z,51.30
2023-03-27T05:49:56.242Z,32.30
2023-03-27T05:52:28.757Z,25.80
2023-03-27T05:54:57.856Z,22.10
2023-03-27T05:57:26.851Z,16.90
2023-03-27T05:59:58.117Z,20.80
2023-03-27T06:02:26.397Z,19.20
2023-03-27T06:05:01.322Z,21.10
2023-03-27T06:07:35.420Z,26.00
2023-03-27T06:10:14.124Z,25.40
2023-03-27T06:13:13.902Z,19.80
2023-03-27T06:15:54.489Z,20.00
2023-03-27T06:18:41.471Z,26.20
2023-03-27T06:21:10.635Z,22.40
2023-03-27T06:23:38.917Z,21.10
2023-03-27T06:26:12.135Z,22.40
2023-03-27T06:28:40.371Z,20.50
2023-03-27T06:31:09.238Z,18.70
2023-03-27T06:33:58.535Z,18.90
2023-03-27T06:36:46.785Z,20.80
2023-03-27T06:39:14.741Z,16.90
2023-03-27T06:41:49.003Z,15.10
2023-03-27T06:44:34.944Z,16.40
2023-03-27T06:49:58.840Z,17.10
2023-03-27T06:52:27.097Z,16.10
2023-03-27T06:54:59.186Z,15.80
2023-03-27T06:57:27.366Z,18.10
2023-03-27T07:00:02.154Z,18.60
2023-03-27T07:02:54.161Z,19.40
2023-03-27T07:05:42.942Z,17.50
2023-03-27T07:08:23.186Z,17.80
2023-03-27T07:13:26.359Z,18.70
2023-03-27T07:15:55.048Z,19.40
2023-03-27T07:18:24.060Z,22.30
2023-03-27T07:20:53.232Z,22.90
2023-03-27T07:23:23.653Z,20.20
2023-03-27T07:26:07.481Z,20.00
2023-03-27T07:28:54.932Z,16.30
2023-03-27T07:31:36.487Z,17.30
2023-03-27T07:34:12.462Z,18.50
2023-03-27T07:37:09.955Z,15.00
2023-03-27T07:39:40.161Z,14.90
2023-03-27T07:42:09.380Z,14.20
2023-03-27T07:45:04.330Z,15.10
2023-03-27T07:47:32.866Z,14.10
2023-03-27T07:50:01.837Z,15.80
2023-03-27T07:52:30.279Z,14.40
2023-03-27T07:55:00.199Z,15.90
2023-03-27T07:57:54.535Z,14.20
2023-03-27T08:00:28.179Z,14.70
2023-03-27T08:03:07.216Z,16.00
2023-03-27T08:05:37.266Z,15.90
2023-03-27T08:08:11.149Z,15.00
2023-03-27T08:11:01.904Z,12.10
2023-03-27T08:13:41.124Z,14.40
2023-03-27T08:16:13.378Z,13.10
2023-03-27T08:18:42.943Z,13.60
2023-03-27T08:21:12.894Z,10.30
2023-03-27T08:23:41.352Z,9.50
2023-03-27T08:26:09.724Z,11.30
2023-03-27T08:28:44.991Z,13.30
2023-03-27T08:31:16.273Z,11.70
2023-03-27T08:33:45.504Z,13.10
2023-03-27T08:36:20.324Z,11.80
2023-03-27T08:38:49.649Z,11.60
2023-03-27T08:41:31.963Z,11.20
2023-03-27T08:44:20.237Z,12.40
2023-03-27T08:46:54.954Z,14.60
2023-03-27T08:49:38.893Z,10.50
2023-03-27T08:52:33.337Z,9.10
2023-03-27T08:55:18.890Z,8.90
2023-03-27T08:57:55.187Z,10.10
2023-03-27T09:00:32.318Z,9.50
2023-03-27T09:03:27.777Z,10.70
2023-03-27T09:06:08.530Z,8.90
2023-03-27T09:09:01.399Z,8.90
2023-03-27T09:11:41.283Z,8.10
2023-03-27T09:14:26.252Z,7.60
2023-03-27T09:16:59.934Z,8.20
2023-03-27T09:19:48.203Z,8.30
2023-03-27T09:22:27.752Z,5.80
2023-03-27T09:25:40.305Z,6.50
2023-03-27T09:28:29.630Z,6.20
2023-03-27T09:31:20.762Z,4.20
2023-03-27T09:33:49.379Z,6.50
2023-03-27T09:36:17.554Z,5.90
2023-03-27T09:38:51.124Z,4.70
2023-03-27T09:41:47.997Z,4.90
2023-03-27T09:44:34.349Z,5.30
2023-03-27T09:47:17.909Z,5.60
2023-03-27T09:49:50.850Z,5.10
2023-03-27T09:52:43.466Z,5.60
2023-03-27T09:55:31.501Z,5.00
2023-03-27T09:58:25.002Z,6.60
2023-03-27T10:01:14.566Z,4.40
2023-03-27T10:03:53.182Z,7.40
2023-03-27T10:07:05.567Z,5.00
2023-03-27T10:10:12.189Z,3.80
2023-03-27T10:20:35.460Z,4.80
2023-03-27T10:23:09.738Z,8.80
2023-03-27T10:25:45.531Z,4.10
2023-03-27T10:28:34.640Z,4.30
2023-03-27T10:31:38.257Z,4.60
2023-03-27T10:34:28.099Z,4.40
2023-03-27T10:37:03.831Z,4.10
2023-03-27T10:39:36.206Z,4.00
2023-03-27T10:42:16.255Z,4.80
2023-03-27T10:44:49.601Z,4.20
2023-03-27T10:47:27.604Z,3.40
2023-03-27T10:50:04.121Z,3.80
2023-03-27T10:52:48.847Z,4.90
2023-03-27T10:55:34.057Z,4.50
2023-03-27T10:58:12.810Z,4.90
2023-03-27T11:00:48.887Z,6.30
2023-03-27T11:03:30.351Z,5.30
2023-03-27T11:06:06.608Z,4.30
2023-03-27T11:09:06.057Z,4.70
2023-03-27T11:11:47.474Z,3.90
2023-03-27T11:14:26.423Z,5.10
2023-03-27T11:17:04.203Z,4.10
2023-03-27T11:22:40.893Z,3.30
2023-03-27T11:25:12.339Z,2.70
2023-03-27T11:27:43.423Z,2.90
2023-03-27T11:30:26.324Z,4.30
2023-03-27T11:33:24.374Z,4.60
2023-03-27T11:36:15.008Z,4.20
2023-03-27T11:39:05.033Z,2.70
2023-03-27T11:41:33.745Z,7.80
2023-03-27T11:44:04.176Z,2.20
2023-03-27T11:47:25.630Z,2.40
2023-03-27T11:50:01.550Z,3.00
2023-03-27T11:52:41.088Z,3.40
2023-03-27T11:55:15.553Z,4.30
2023-03-27T11:58:18.503Z,3.10
2023-03-27T12:01:13.206Z,3.70
2023-03-27T12:04:01.007Z,3.30
2023-03-27T12:07:35.286Z,3.70
2023-03-27T12:10:40.919Z,4.20
2023-03-27T12:14:17.715Z,10.10
2023-03-27T12:17:12.716Z,3.50
2023-03-27T12:19:54.071Z,3.90
2023-03-27T12:22:50.304Z,3.80
2023-03-27T12:25:53.508Z,4.90
2023-03-27T12:28:58.857Z,4.80
2023-03-27T12:31:48.085Z,7.40
2023-03-27T12:34:31.235Z,5.00
2023-03-27T12:37:00.935Z,4.40
2023-03-27T12:39:29.136Z,4.40
2023-03-27T12:42:13.574Z,4.10
2023-03-27T12:45:15.349Z,4.30
2023-03-27T12:48:04.110Z,4.30
2023-03-27T12:50:42.198Z,4.70
2023-03-27T12:53:39.755Z,4.00
2023-03-27T12:56:09.980Z,6.20
2023-03-27T12:58:40.250Z,4.80
2023-03-27T13:01:51.787Z,4.10
2023-03-27T13:07:31.791Z,4.90
2023-03-27T13:10:39.455Z,4.30
2023-03-27T13:13:39.635Z,3.30
2023-03-27T13:16:37.086Z,3.50
2023-03-27T13:19:38.368Z,3.70
2023-03-27T13:22:42.936Z,3.20
2023-03-27T13:25:40.397Z,3.00
2023-03-27T13:28:20.558Z,5.70
2023-03-27T13:30:59.278Z,4.30
2023-03-27T13:33:47.603Z,5.80
2023-03-27T13:36:29.308Z,3.90
2023-03-27T13:38:57.327Z,3.40
2023-03-27T13:41:43.594Z,3.70
2023-03-27T13:44:26.806Z,3.20
2023-03-27T13:47:12.363Z,3.50
2023-03-27T13:50:05.024Z,6.90
2023-03-27T13:52:48.229Z,5.10
2023-03-27T13:55:28.105Z,6.70
2023-03-27T13:58:46.763Z,4.50
2023-03-27T14:01:39.077Z,3.50
2023-03-27T14:04:33.618Z,4.80
2023-03-27T14:07:24.367Z,3.40
2023-03-27T14:10:17.503Z,3.40
2023-03-27T14:13:14.072Z,3.70
2023-03-27T14:16:14.745Z,6.00
2023-03-27T14:19:12.283Z,4.10
2023-03-27T14:21:56.025Z,3.80
2023-03-27T14:24:36.835Z,5.20
2023-03-27T14:27:20.375Z,3.10
2023-03-27T14:30:07.716Z,3.00
2023-03-27T14:32:37.369Z,3.90
2023-03-27T14:35:06.081Z,4.00
2023-03-27T14:37:42.043Z,5.10
2023-03-27T14:40:41.517Z,3.20
2023-03-27T14:43:12.531Z,3.50
2023-03-27T14:45:41.402Z,2.50
2023-03-27T14:48:23.029Z,3.10
2023-03-27T14:51:01.914Z,2.70
2023-03-27T14:53:36.645Z,4.10
2023-03-27T14:56:30.903Z,3.10
2023-03-27T14:59:03.073Z,3.10
2023-03-27T15:01:42.512Z,3.10
2023-03-27T15:04:14.109Z,3.60
2023-03-27T15:06:43.104Z,2.70
2023-03-27T15:09:15.790Z,8.00
2023-03-27T15:12:11.119Z,9.20
2023-03-27T15:14:40.672Z,4.70
2023-03-27T15:17:18.002Z,5.80
2023-03-27T15:19:55.895Z,11.40
2023-03-27T15:22:44.366Z,3.70
2023-03-27T15:25:17.732Z,4.50
2023-03-27T15:27:52.865Z,2.30
2023-03-27T15:30:21.262Z,2.80
2023-03-27T15:32:55.328Z,4.20
2023-03-27T15:35:34.440Z,4.50
2023-03-27T15:38:05.402Z,3.20
2023-03-27T15:40:35.411Z,3.70
2023-03-27T15:43:19.971Z,3.20
2023-03-27T15:45:57.179Z,4.50
2023-03-27T15:48:35.428Z,4.80
2023-03-27T15:51:27.000Z,4.20
2023-03-27T15:54:00.161Z,6.80
2023-03-27T15:56:42.458Z,4.90
2023-03-27T15:59:14.454Z,5.50
2023-03-27T16:01:52.244Z,4.50
2023-03-27T16:13:59.231Z,3.20
2023-03-27T16:19:11.520Z,4.10
2023-03-27T16:21:54.144Z,6.40
2023-03-27T16:24:22.078Z,5.80
2023-03-27T16:26:51.702Z,4.30
2023-03-27T16:29:20.488Z,5.30
2023-03-27T16:31:48.380Z,5.50
2023-03-27T16:34:22.937Z,5.30
2023-03-27T16:36:51.561Z,5.90
2023-03-27T16:39:19.613Z,5.40
2023-03-27T16:41:47.776Z,4.50
2023-03-27T16:44:15.862Z,4.40
2023-03-27T16:46:43.880Z,4.00
2023-03-27T16:49:12.802Z,4.00
2023-03-27T16:51:41.189Z,4.00
2023-03-27T16:54:09.355Z,4.60
2023-03-27T16:56:37.505Z,3.40
2023-03-27T17:03:39.993Z,3.80
2023-03-27T17:06:10.258Z,5.90
2023-03-27T17:08:38.782Z,5.60
2023-03-27T17:11:12.947Z,7.70
2023-03-27T17:13:43.430Z,5.30
2023-03-27T17:16:11.914Z,5.10
2023-03-27T17:18:39.806Z,5.60
2023-03-27T17:21:08.061Z,4.30
2023-03-27T17:23:36.501Z,4.50
2023-03-27T17:26:05.137Z,6.10
2023-03-27T17:28:33.152Z,6.00
2023-03-27T17:31:05.201Z,10.30
2023-03-27T17:33:33.937Z,7.70
2023-03-27T17:36:07.938Z,6.50
2023-03-27T17:38:36.143Z,5.40
2023-03-27T17:41:04.135Z,6.00
2023-03-27T17:43:32.595Z,6.10
2023-03-27T17:46:00.922Z,5.90
2023-03-27T17:48:29.128Z,7.10
2023-03-27T17:55:32.979Z,14.70
2023-03-27T17:58:08.751Z,4.60
2023-03-27T18:00:39.458Z,9.30
2023-03-27T18:03:09.009Z,5.80
2023-03-27T18:05:41.374Z,5.20
2023-03-27T18:08:12.188Z,6.40
2023-03-27T18:10:48.646Z,7.80
2023-03-27T18:13:18.322Z,5.30
2023-03-27T18:15:46.608Z,5.40
2023-03-27T18:18:14.532Z,6.40
2023-03-27T18:20:42.454Z,16.00
2023-03-27T18:23:10.417Z,23.00
2023-03-27T18:25:43.045Z,14.50
2023-03-27T18:28:11.422Z,6.90
2023-03-27T18:30:39.814Z,9.00
2023-03-27T18:33:08.805Z,10.70
2023-03-27T18:35:37.889Z,7.60
2023-03-27T18:38:06.183Z,11.40
2023-03-27T18:40:34.136Z,8.40
2023-03-27T18:47:37.805Z,8.60
2023-03-27T18:50:06.819Z,8.00
2023-03-27T18:52:34.774Z,4.70
2023-03-27T18:55:02.776Z,6.70
2023-03-27T18:57:30.936Z,5.10
2023-03-27T19:00:00.209Z,5.10
2023-03-27T19:02:28.830Z,5.90
2023-03-27T19:04:56.926Z,6.20
2023-03-27T19:07:24.842Z,8.10
2023-03-27T19:09:53.039Z,5.60
2023-03-27T19:12:22.073Z,5.50
2023-03-27T19:15:19.359Z,4.30
2023-03-27T19:18:17.755Z,5.40
2023-03-27T19:21:05.945Z,5.00
2023-03-27T19:23:46.100Z,4.60
2023-03-27T19:26:16.951Z,6.80
2023-03-27T19:28:47.749Z,7.40
2023-03-27T19:31:17.129Z,5.50
2023-03-27T19:33:45.926Z,6.50
2023-03-27T19:36:14.028Z,8.10
2023-03-27T19:38:43.689Z,6.60
2023-03-27T19:41:11.966Z,4.50
2023-03-27T19:43:40.666Z,4.20
2023-03-27T19:46:16.418Z,3.60
2023-03-27T19:48:47.483Z,3.30
2023-03-27T19:51:30.243Z,5.00
2023-03-27T19:53:58.228Z,7.50
2023-03-27T19:56:28.005Z,3.30
2023-03-27T20:03:30.597Z,4.40
2023-03-27T20:06:07.546Z,5.30
2023-03-27T20:08:39.614Z,6.00
2023-03-27T20:11:07.705Z,4.70
2023-03-27T20:13:48.878Z,5.30
2023-03-27T20:16:26.813Z,4.30
2023-03-27T20:19:04.777Z,5.80
2023-03-27T20:21:39.782Z,4.70
2023-03-27T20:24:17.766Z,5.10
2023-03-27T20:26:57.768Z,5.30
2023-03-27T20:29:29.768Z,5.30
2023-03-27T20:32:00.745Z,6.00
2023-03-27T20:34:33.724Z,4.20
2023-03-27T20:37:12.784Z,3.20
2023-03-27T20:39:48.804Z,4.30
2023-03-27T20:42:25.784Z,3.90
2023-03-27T20:44:59.843Z,6.00
2023-03-27T20:47:39.992Z,6.60
2023-03-27T20:54:35.756Z,3.60
2023-03-27T20:57:07.826Z,5.70
2023-03-27T20:59:38.815Z,4.50
2023-03-27T21:02:18.882Z,4.70
2023-03-27T21:04:50.786Z,5.60
2023-03-27T21:07:22.804Z,4.80
2023-03-27T21:09:54.814Z,8.80
2023-03-27T21:12:25.797Z,5.30
2023-03-27T21:22:28.884Z,5.40
2023-03-27T21:24:58.832Z,7.30
2023-03-27T21:27:27.025Z,5.70
2023-03-27T21:29:55.087Z,5.20
2023-03-27T21:32:23.181Z,5.50
2023-03-27T21:34:51.123Z,7.30
2023-03-27T21:37:19.209Z,5.20
2023-03-27T21:39:47.271Z,5.90
2023-03-27T21:42:16.583Z,6.90
2023-03-27T21:44:48.299Z,5.40
2023-03-27T21:47:19.719Z,6.90
2023-03-27T21:49:47.837Z,6.80
2023-03-27T21:52:15.910Z,7.40
2023-03-27T21:54:53.117Z,7.10
2023-03-27T21:57:28.432Z,5.50
2023-03-27T21:59:56.707Z,7.90
2023-03-27T22:02:24.725Z,8.40
2023-03-27T22:04:53.102Z,7.40
2023-03-27T22:07:21.234Z,6.50
2023-03-27T22:09:49.207Z,6.40
2023-03-27T22:12:17.165Z,5.30
2023-03-27T22:14:45.785Z,7.60
2023-03-27T22:17:14.024Z,7.90
2023-03-27T22:19:41.998Z,6.50
2023-03-27T22:22:10.091Z,7.60
2023-03-27T22:24:38.135Z,9.40
2023-03-27T22:27:06.114Z,8.30
2023-03-27T22:29:34.185Z,7.50
2023-03-27T22:32:02.654Z,10.30
2023-03-27T22:34:30.619Z,8.90
2023-03-27T22:36:58.697Z,9.50
2023-03-27T22:39:27.581Z,7.80
2023-03-27T22:41:55.787Z,7.80
2023-03-27T22:44:24.029Z,6.80
2023-03-27T22:46:53.202Z,7.90
2023-03-27T22:49:21.749Z,6.60
2023-03-27T22:51:49.780Z,6.60
2023-03-27T22:54:19.075Z,6.40
2023-03-27T22:56:47.898Z,5.50
2023-03-27T22:59:17.502Z,6.10
2023-03-27T23:01:45.648Z,8.30
2023-03-27T23:04:13.718Z,7.80
2023-03-27T23:06:41.806Z,6.90
2023-03-27T23:09:10.726Z,7.30
2023-03-27T23:11:38.755Z,7.80
2023-03-27T23:14:06.825Z,8.40
2023-03-27T23:16:34.850Z,7.50
2023-03-27T23:19:03.575Z,8.00
2023-03-27T23:21:31.754Z,7.90
2023-03-27T23:23:59.740Z,6.00
2023-03-27T23:26:27.800Z,8.50
2023-03-27T23:28:55.817Z,8.60
2023-03-27T23:31:23.877Z,9.20
2023-03-27T23:33:52.225Z,9.60
2023-03-27T23:36:23.356Z,14.20
2023-03-27T23:38:52.926Z,15.50
2023-03-27T23:41:21.758Z,17.70
2023-03-27T23:43:50.149Z,16.80
2023-03-27T23:46:18.590Z,15.60
2023-03-27T23:48:46.780Z,14.30
2023-03-27T23:51:16.427Z,15.20
2023-03-27T23:53:45.188Z,13.70
2023-03-27T23:56:13.246Z,13.80
2023-03-27T23:58:41.353Z,16.20
